Wyman, Iowa
Current Conditions -  °F | °C
As of 8:15 PM on Monday 22 Dec 2014 (Local Time) from KAWG Reporting Station
Haze Haze  
Wind Chill: 34°   Ceiling: 300
Heat Index: 41°   Visibility: 3mi
Dew Point: 41°   Wind: 12mph
Humidity: 100%   Direction: 110°ESE
Pressure: 29.48"   Gusts: NA
Location:  41.2052°N, 91.5466°W
Report Text: KAWG 230215Z AUTO 11010KT 3SM BR OVC003 05/05 A2948 RMK AO2
Loading
Personal Weather Stations






























Interactive Weather Map New forecast layout! Learn more

10-Day Weather Forecast

Advertisements
Track Severe Weather on mobile